sensor_id;sensor_type;location;lat;lon;timestamp;P1;durP1;ratioP1;P2;durP2;ratioP2
65206;SDS011;58477;48.072;11.970;2024-03-17T00:00:21;4.47;;;3.20;;
65206;SDS011;58477;48.072;11.970;2024-03-17T00:02:47;2.42;;;2.22;;
65206;SDS011;58477;48.072;11.970;2024-03-17T00:05:13;2.85;;;2.40;;
65206;SDS011;58477;48.072;11.970;2024-03-17T00:07:39;2.85;;;2.42;;
65206;SDS011;58477;48.072;11.970;2024-03-17T00:10:05;2.63;;;2.42;;
65206;SDS011;58477;48.072;11.970;2024-03-17T00:12:34;6.13;;;2.63;;
65206;SDS011;58477;48.072;11.970;2024-03-17T00:15:00;2.70;;;2.28;;
65206;SDS011;58477;48.072;11.970;2024-03-17T00:17:25;6.88;;;3.15;;
65206;SDS011;58477;48.072;11.970;2024-03-17T00:19:50;3.75;;;2.58;;
65206;SDS011;58477;48.072;11.970;2024-03-17T00:22:16;8.70;;;2.88;;
65206;SDS011;58477;48.072;11.970;2024-03-17T00:24:42;3.05;;;2.53;;
65206;SDS011;58477;48.072;11.970;2024-03-17T00:27:08;3.15;;;2.50;;
65206;SDS011;58477;48.072;11.970;2024-03-17T00:29:34;4.90;;;2.47;;
65206;SDS011;58477;48.072;11.970;2024-03-17T00:31:59;3.00;;;2.67;;
65206;SDS011;58477;48.072;11.970;2024-03-17T00:34:25;4.90;;;2.67;;
65206;SDS011;58477;48.072;11.970;2024-03-17T00:36:50;3.33;;;2.53;;
65206;SDS011;58477;48.072;11.970;2024-03-17T00:39:16;4.70;;;2.63;;
65206;SDS011;58477;48.072;11.970;2024-03-17T00:41:43;2.92;;;2.58;;
65206;SDS011;58477;48.072;11.970;2024-03-17T00:44:09;3.17;;;2.63;;
65206;SDS011;58477;48.072;11.970;2024-03-17T00:46:34;5.18;;;2.83;;
65206;SDS011;58477;48.072;11.970;2024-03-17T00:48:59;3.10;;;2.33;;
65206;SDS011;58477;48.072;11.970;2024-03-17T00:51:27;4.50;;;2.35;;
65206;SDS011;58477;48.072;11.970;2024-03-17T00:53:53;2.60;;;2.40;;
65206;SDS011;58477;48.072;11.970;2024-03-17T00:56:18;3.63;;;2.60;;
65206;SDS011;58477;48.072;11.970;2024-03-17T00:58:43;4.90;;;2.60;;
65206;SDS011;58477;48.072;11.970;2024-03-17T01:01:10;3.22;;;2.40;;
65206;SDS011;58477;48.072;11.970;2024-03-17T01:03:36;4.30;;;3.00;;
65206;SDS011;58477;48.072;11.970;2024-03-17T01:06:04;3.55;;;2.50;;
65206;SDS011;58477;48.072;11.970;2024-03-17T01:08:30;2.40;;;2.20;;
65206;SDS011;58477;48.072;11.970;2024-03-17T01:10:56;4.57;;;2.80;;
65206;SDS011;58477;48.072;11.970;2024-03-17T01:13:21;3.60;;;2.70;;
65206;SDS011;58477;48.072;11.970;2024-03-17T01:15:50;2.47;;;2.13;;
65206;SDS011;58477;48.072;11.970;2024-03-17T01:18:16;2.60;;;2.40;;
65206;SDS011;58477;48.072;11.970;2024-03-17T01:20:42;4.22;;;2.45;;
65206;SDS011;58477;48.072;11.970;2024-03-17T01:23:07;2.80;;;2.53;;
65206;SDS011;58477;48.072;11.970;2024-03-17T01:25:33;3.40;;;2.60;;
65206;SDS011;58477;48.072;11.970;2024-03-17T01:28:02;3.38;;;2.63;;
65206;SDS011;58477;48.072;11.970;2024-03-17T01:30:31;2.60;;;2.40;;
65206;SDS011;58477;48.072;11.970;2024-03-17T01:32:58;3.67;;;2.80;;
65206;SDS011;58477;48.072;11.970;2024-03-17T01:35:25;2.90;;;2.55;;
65206;SDS011;58477;48.072;11.970;2024-03-17T01:37:50;3.08;;;2.25;;
65206;SDS011;58477;48.072;11.970;2024-03-17T01:40:16;4.20;;;2.67;;
65206;SDS011;58477;48.072;11.970;2024-03-17T01:42:41;3.60;;;2.78;;
65206;SDS011;58477;48.072;11.970;2024-03-17T01:45:27;3.75;;;2.72;;
65206;SDS011;58477;48.072;11.970;2024-03-17T01:47:54;3.95;;;2.95;;
65206;SDS011;58477;48.072;11.970;2024-03-17T01:50:23;3.17;;;2.88;;
65206;SDS011;58477;48.072;11.970;2024-03-17T01:52:56;3.53;;;2.78;;
65206;SDS011;58477;48.072;11.970;2024-03-17T01:55:26;2.83;;;2.55;;
65206;SDS011;58477;48.072;11.970;2024-03-17T01:57:52;4.00;;;3.00;;
65206;SDS011;58477;48.072;11.970;2024-03-17T02:00:18;4.75;;;3.63;;
65206;SDS011;58477;48.072;11.970;2024-03-17T02:02:44;5.30;;;3.97;;
65206;SDS011;58477;48.072;11.970;2024-03-17T02:05:09;5.22;;;3.80;;
65206;SDS011;58477;48.072;11.970;2024-03-17T02:07:35;4.78;;;3.92;;
65206;SDS011;58477;48.072;11.970;2024-03-17T02:10:00;4.50;;;3.42;;
65206;SDS011;58477;48.072;11.970;2024-03-17T02:12:29;6.50;;;4.30;;
65206;SDS011;58477;48.072;11.970;2024-03-17T02:14:56;7.38;;;3.67;;
65206;SDS011;58477;48.072;11.970;2024-03-17T02:17:22;4.97;;;3.92;;
65206;SDS011;58477;48.072;11.970;2024-03-17T02:19:50;6.10;;;4.63;;
65206;SDS011;58477;48.072;11.970;2024-03-17T02:22:15;6.50;;;4.20;;
65206;SDS011;58477;48.072;11.970;2024-03-17T02:24:42;10.65;;;4.18;;
65206;SDS011;58477;48.072;11.970;2024-03-17T02:27:07;7.18;;;4.05;;
65206;SDS011;58477;48.072;11.970;2024-03-17T02:29:34;5.47;;;4.32;;
65206;SDS011;58477;48.072;11.970;2024-03-17T02:32:02;4.60;;;3.40;;
65206;SDS011;58477;48.072;11.970;2024-03-17T02:34:32;3.70;;;3.38;;
65206;SDS011;58477;48.072;11.970;2024-03-17T02:37:01;5.38;;;3.78;;
65206;SDS011;58477;48.072;11.970;2024-03-17T02:39:28;4.28;;;3.65;;
65206;SDS011;58477;48.072;11.970;2024-03-17T02:41:57;4.80;;;3.47;;
65206;SDS011;58477;48.072;11.970;2024-03-17T02:44:22;4.78;;;3.60;;
65206;SDS011;58477;48.072;11.970;2024-03-17T02:46:47;4.35;;;3.58;;
65206;SDS011;58477;48.072;11.970;2024-03-17T02:49:13;6.07;;;4.20;;
65206;SDS011;58477;48.072;11.970;2024-03-17T02:51:39;5.65;;;3.90;;
65206;SDS011;58477;48.072;11.970;2024-03-17T02:54:04;6.45;;;4.18;;
65206;SDS011;58477;48.072;11.970;2024-03-17T02:56:31;4.65;;;4.20;;
65206;SDS011;58477;48.072;11.970;2024-03-17T02:58:56;5.22;;;3.83;;
65206;SDS011;58477;48.072;11.970;2024-03-17T03:01:21;3.70;;;3.33;;
65206;SDS011;58477;48.072;11.970;2024-03-17T03:03:47;6.75;;;4.13;;
65206;SDS011;58477;48.072;11.970;2024-03-17T03:06:13;3.90;;;3.50;;
65206;SDS011;58477;48.072;11.970;2024-03-17T03:08:39;9.10;;;4.22;;
65206;SDS011;58477;48.072;11.970;2024-03-17T03:11:09;7.28;;;4.32;;
65206;SDS011;58477;48.072;11.970;2024-03-17T03:13:40;5.40;;;4.50;;
65206;SDS011;58477;48.072;11.970;2024-03-17T03:16:07;5.82;;;4.43;;
65206;SDS011;58477;48.072;11.970;2024-03-17T03:18:33;7.90;;;4.72;;
65206;SDS011;58477;48.072;11.970;2024-03-17T03:21:02;8.63;;;4.43;;
65206;SDS011;58477;48.072;11.970;2024-03-17T03:23:28;5.38;;;4.18;;
65206;SDS011;58477;48.072;11.970;2024-03-17T03:25:57;6.47;;;4.30;;
65206;SDS011;58477;48.072;11.970;2024-03-17T03:28:23;9.30;;;4.50;;
65206;SDS011;58477;48.072;11.970;2024-03-17T03:34:37;6.00;;;4.82;;
65206;SDS011;58477;48.072;11.970;2024-03-17T03:37:04;8.10;;;5.80;;
65206;SDS011;58477;48.072;11.970;2024-03-17T03:39:32;8.13;;;5.80;;
65206;SDS011;58477;48.072;11.970;2024-03-17T03:41:57;9.27;;;5.25;;
65206;SDS011;58477;48.072;11.970;2024-03-17T03:44:23;9.73;;;4.88;;
65206;SDS011;58477;48.072;11.970;2024-03-17T03:46:48;6.88;;;4.63;;
65206;SDS011;58477;48.072;11.970;2024-03-17T03:49:13;8.95;;;4.90;;
65206;SDS011;58477;48.072;11.970;2024-03-17T03:51:39;7.03;;;4.63;;
65206;SDS011;58477;48.072;11.970;2024-03-17T03:54:04;5.55;;;4.45;;
65206;SDS011;58477;48.072;11.970;2024-03-17T03:56:31;6.07;;;4.55;;
65206;SDS011;58477;48.072;11.970;2024-03-17T03:58:58;6.35;;;4.60;;
65206;SDS011;58477;48.072;11.970;2024-03-17T04:01:23;5.78;;;4.32;;
65206;SDS011;58477;48.072;11.970;2024-03-17T04:03:49;6.40;;;4.75;;
65206;SDS011;58477;48.072;11.970;2024-03-17T04:06:14;6.28;;;4.70;;
65206;SDS011;58477;48.072;11.970;2024-03-17T04:08:41;7.50;;;4.78;;
65206;SDS011;58477;48.072;11.970;2024-03-17T04:11:06;5.47;;;4.15;;
65206;SDS011;58477;48.072;11.970;2024-03-17T04:13:32;5.35;;;4.30;;
65206;SDS011;58477;48.072;11.970;2024-03-17T04:15:58;5.53;;;4.00;;
65206;SDS011;58477;48.072;11.970;2024-03-17T04:18:31;6.70;;;4.65;;
65206;SDS011;58477;48.072;11.970;2024-03-17T04:21:00;7.38;;;5.30;;
65206;SDS011;58477;48.072;11.970;2024-03-17T04:23:27;9.25;;;5.45;;
65206;SDS011;58477;48.072;11.970;2024-03-17T04:25:53;6.43;;;4.75;;
65206;SDS011;58477;48.072;11.970;2024-03-17T04:28:18;6.50;;;5.03;;
65206;SDS011;58477;48.072;11.970;2024-03-17T04:30:44;7.80;;;5.78;;
65206;SDS011;58477;48.072;11.970;2024-03-17T04:33:10;9.75;;;5.78;;
65206;SDS011;58477;48.072;11.970;2024-03-17T04:35:36;10.23;;;6.85;;
65206;SDS011;58477;48.072;11.970;2024-03-17T04:38:02;7.95;;;5.70;;
65206;SDS011;58477;48.072;11.970;2024-03-17T04:40:28;8.52;;;6.00;;
65206;SDS011;58477;48.072;11.970;2024-03-17T04:42:53;8.68;;;5.43;;
65206;SDS011;58477;48.072;11.970;2024-03-17T04:45:18;7.47;;;5.57;;
65206;SDS011;58477;48.072;11.970;2024-03-17T04:47:43;6.45;;;5.03;;
65206;SDS011;58477;48.072;11.970;2024-03-17T04:50:09;6.45;;;5.25;;
65206;SDS011;58477;48.072;11.970;2024-03-17T04:52:34;6.78;;;5.30;;
65206;SDS011;58477;48.072;11.970;2024-03-17T04:55:00;6.65;;;5.05;;
65206;SDS011;58477;48.072;11.970;2024-03-17T04:57:25;7.13;;;5.20;;
65206;SDS011;58477;48.072;11.970;2024-03-17T04:59:50;6.25;;;4.65;;
65206;SDS011;58477;48.072;11.970;2024-03-17T05:02:16;8.00;;;4.55;;
65206;SDS011;58477;48.072;11.970;2024-03-17T05:04:41;6.88;;;4.75;;
65206;SDS011;58477;48.072;11.970;2024-03-17T05:07:07;6.25;;;4.97;;
65206;SDS011;58477;48.072;11.970;2024-03-17T05:09:34;6.57;;;4.60;;
65206;SDS011;58477;48.072;11.970;2024-03-17T05:11:59;5.90;;;4.43;;
65206;SDS011;58477;48.072;11.970;2024-03-17T05:14:25;6.95;;;5.00;;
65206;SDS011;58477;48.072;11.970;2024-03-17T05:16:51;7.32;;;5.07;;
65206;SDS011;58477;48.072;11.970;2024-03-17T05:19:17;6.15;;;4.40;;
65206;SDS011;58477;48.072;11.970;2024-03-17T05:21:43;7.72;;;5.32;;
65206;SDS011;58477;48.072;11.970;2024-03-17T05:24:09;8.65;;;5.75;;
65206;SDS011;58477;48.072;11.970;2024-03-17T05:26:35;9.05;;;5.65;;
65206;SDS011;58477;48.072;11.970;2024-03-17T05:29:00;8.65;;;5.75;;
65206;SDS011;58477;48.072;11.970;2024-03-17T05:31:26;7.75;;;5.05;;
65206;SDS011;58477;48.072;11.970;2024-03-17T05:33:51;8.52;;;5.47;;
65206;SDS011;58477;48.072;11.970;2024-03-17T05:36:17;6.25;;;5.13;;
65206;SDS011;58477;48.072;11.970;2024-03-17T05:38:45;7.78;;;5.28;;
65206;SDS011;58477;48.072;11.970;2024-03-17T05:41:10;7.82;;;5.32;;
65206;SDS011;58477;48.072;11.970;2024-03-17T05:43:36;7.82;;;5.05;;
65206;SDS011;58477;48.072;11.970;2024-03-17T05:46:04;5.72;;;4.82;;
65206;SDS011;58477;48.072;11.970;2024-03-17T05:48:33;7.78;;;5.30;;
65206;SDS011;58477;48.072;11.970;2024-03-17T05:51:02;9.15;;;5.95;;
65206;SDS011;58477;48.072;11.970;2024-03-17T05:53:28;8.02;;;5.53;;
65206;SDS011;58477;48.072;11.970;2024-03-17T05:55:54;7.82;;;5.97;;
65206;SDS011;58477;48.072;11.970;2024-03-17T05:58:20;8.55;;;5.72;;
65206;SDS011;58477;48.072;11.970;2024-03-17T06:00:45;9.20;;;5.82;;
65206;SDS011;58477;48.072;11.970;2024-03-17T06:03:11;10.30;;;6.15;;
65206;SDS011;58477;48.072;11.970;2024-03-17T06:05:38;9.55;;;5.70;;
65206;SDS011;58477;48.072;11.970;2024-03-17T06:08:05;9.30;;;6.32;;
65206;SDS011;58477;48.072;11.970;2024-03-17T06:10:33;6.85;;;5.57;;
65206;SDS011;58477;48.072;11.970;2024-03-17T06:13:00;8.05;;;6.03;;
65206;SDS011;58477;48.072;11.970;2024-03-17T06:15:26;9.25;;;5.35;;
65206;SDS011;58477;48.072;11.970;2024-03-17T06:17:52;6.22;;;4.55;;
65206;SDS011;58477;48.072;11.970;2024-03-17T06:20:19;4.90;;;4.13;;
65206;SDS011;58477;48.072;11.970;2024-03-17T06:22:44;5.72;;;4.25;;
65206;SDS011;58477;48.072;11.970;2024-03-17T06:25:11;8.45;;;4.57;;
65206;SDS011;58477;48.072;11.970;2024-03-17T06:27:36;5.72;;;4.35;;
65206;SDS011;58477;48.072;11.970;2024-03-17T06:30:02;5.20;;;4.20;;
65206;SDS011;58477;48.072;11.970;2024-03-17T06:32:31;5.03;;;4.00;;
65206;SDS011;58477;48.072;11.970;2024-03-17T06:34:58;6.20;;;4.65;;
65206;SDS011;58477;48.072;11.970;2024-03-17T06:37:24;6.63;;;4.70;;
65206;SDS011;58477;48.072;11.970;2024-03-17T06:39:49;6.07;;;4.68;;
65206;SDS011;58477;48.072;11.970;2024-03-17T06:42:15;6.85;;;4.63;;
65206;SDS011;58477;48.072;11.970;2024-03-17T06:44:40;7.10;;;5.03;;
65206;SDS011;58477;48.072;11.970;2024-03-17T06:47:06;6.30;;;4.68;;
65206;SDS011;58477;48.072;11.970;2024-03-17T06:49:31;6.10;;;4.70;;
65206;SDS011;58477;48.072;11.970;2024-03-17T06:51:58;5.10;;;4.25;;
65206;SDS011;58477;48.072;11.970;2024-03-17T06:54:23;5.70;;;4.47;;
65206;SDS011;58477;48.072;11.970;2024-03-17T06:56:48;5.80;;;4.60;;
65206;SDS011;58477;48.072;11.970;2024-03-17T06:59:14;4.82;;;3.97;;
65206;SDS011;58477;48.072;11.970;2024-03-17T07:01:40;7.35;;;3.80;;
65206;SDS011;58477;48.072;11.970;2024-03-17T07:04:05;6.68;;;4.07;;
65206;SDS011;58477;48.072;11.970;2024-03-17T07:06:31;5.30;;;3.63;;
65206;SDS011;58477;48.072;11.970;2024-03-17T07:08:56;3.95;;;3.55;;
65206;SDS011;58477;48.072;11.970;2024-03-17T07:11:21;6.05;;;2.78;;
65206;SDS011;58477;48.072;11.970;2024-03-17T07:13:48;3.80;;;3.33;;
65206;SDS011;58477;48.072;11.970;2024-03-17T07:16:16;7.75;;;3.15;;
65206;SDS011;58477;48.072;11.970;2024-03-17T07:18:43;4.20;;;3.30;;
65206;SDS011;58477;48.072;11.970;2024-03-17T07:21:08;6.85;;;3.25;;
65206;SDS011;58477;48.072;11.970;2024-03-17T07:23:35;4.95;;;3.15;;
65206;SDS011;58477;48.072;11.970;2024-03-17T07:26:01;5.05;;;3.08;;
65206;SDS011;58477;48.072;11.970;2024-03-17T07:28:30;5.45;;;3.47;;
65206;SDS011;58477;48.072;11.970;2024-03-17T07:30:57;4.10;;;3.10;;
65206;SDS011;58477;48.072;11.970;2024-03-17T07:33:23;5.32;;;3.50;;
65206;SDS011;58477;48.072;11.970;2024-03-17T07:35:50;3.22;;;2.92;;
65206;SDS011;58477;48.072;11.970;2024-03-17T07:38:25;5.75;;;3.78;;
65206;SDS011;58477;48.072;11.970;2024-03-17T07:40:58;4.28;;;3.72;;
65206;SDS011;58477;48.072;11.970;2024-03-17T07:43:27;4.75;;;3.35;;
65206;SDS011;58477;48.072;11.970;2024-03-17T07:46:04;8.18;;;4.00;;
65206;SDS011;58477;48.072;11.970;2024-03-17T07:48:39;4.22;;;3.35;;
65206;SDS011;58477;48.072;11.970;2024-03-17T07:51:06;4.97;;;3.25;;
65206;SDS011;58477;48.072;11.970;2024-03-17T07:53:37;4.78;;;3.58;;
65206;SDS011;58477;48.072;11.970;2024-03-17T07:58:34;3.37;;;3.07;;
65206;SDS011;58477;48.072;11.970;2024-03-17T08:01:01;4.35;;;3.70;;
65206;SDS011;58477;48.072;11.970;2024-03-17T08:03:32;4.18;;;3.50;;
65206;SDS011;58477;48.072;11.970;2024-03-17T08:05:59;4.10;;;3.67;;
65206;SDS011;58477;48.072;11.970;2024-03-17T08:08:25;5.28;;;3.72;;
65206;SDS011;58477;48.072;11.970;2024-03-17T08:10:51;3.70;;;3.15;;
65206;SDS011;58477;48.072;11.970;2024-03-17T08:13:17;3.65;;;3.22;;
65206;SDS011;58477;48.072;11.970;2024-03-17T08:15:43;4.18;;;3.38;;
65206;SDS011;58477;48.072;11.970;2024-03-17T08:18:10;3.70;;;3.40;;
65206;SDS011;58477;48.072;11.970;2024-03-17T08:20:37;5.30;;;3.40;;
65206;SDS011;58477;48.072;11.970;2024-03-17T08:23:06;6.68;;;3.42;;
65206;SDS011;58477;48.072;11.970;2024-03-17T08:25:32;4.53;;;3.30;;
65206;SDS011;58477;48.072;11.970;2024-03-17T08:27:58;5.50;;;3.30;;
65206;SDS011;58477;48.072;11.970;2024-03-17T08:30:24;5.90;;;3.60;;
65206;SDS011;58477;48.072;11.970;2024-03-17T08:32:49;4.18;;;3.22;;
65206;SDS011;58477;48.072;11.970;2024-03-17T08:35:15;5.00;;;3.70;;
65206;SDS011;58477;48.072;11.970;2024-03-17T08:37:40;8.30;;;3.40;;
65206;SDS011;58477;48.072;11.970;2024-03-17T08:40:06;4.45;;;3.60;;
65206;SDS011;58477;48.072;11.970;2024-03-17T08:42:32;4.40;;;3.20;;
65206;SDS011;58477;48.072;11.970;2024-03-17T08:45:01;3.67;;;2.90;;
65206;SDS011;58477;48.072;11.970;2024-03-17T08:47:26;3.80;;;3.47;;
65206;SDS011;58477;48.072;11.970;2024-03-17T08:49:52;3.58;;;3.22;;
65206;SDS011;58477;48.072;11.970;2024-03-17T08:52:17;3.78;;;3.38;;
65206;SDS011;58477;48.072;11.970;2024-03-17T08:54:46;3.50;;;3.20;;
65206;SDS011;58477;48.072;11.970;2024-03-17T08:57:12;6.32;;;3.33;;
65206;SDS011;58477;48.072;11.970;2024-03-17T08:59:38;3.53;;;2.90;;
65206;SDS011;58477;48.072;11.970;2024-03-17T09:02:04;2.60;;;2.40;;
65206;SDS011;58477;48.072;11.970;2024-03-17T09:04:30;3.03;;;2.70;;
65206;SDS011;58477;48.072;11.970;2024-03-17T09:06:56;4.63;;;2.50;;
65206;SDS011;58477;48.072;11.970;2024-03-17T09:09:22;2.95;;;2.65;;
65206;SDS011;58477;48.072;11.970;2024-03-17T09:11:47;3.60;;;2.70;;
65206;SDS011;58477;48.072;11.970;2024-03-17T09:14:13;6.53;;;2.90;;
65206;SDS011;58477;48.072;11.970;2024-03-17T09:16:38;2.95;;;2.65;;
65206;SDS011;58477;48.072;11.970;2024-03-17T09:19:04;2.78;;;2.50;;
65206;SDS011;58477;48.072;11.970;2024-03-17T09:21:29;3.78;;;2.92;;
65206;SDS011;58477;48.072;11.970;2024-03-17T09:23:54;4.70;;;2.85;;
65206;SDS011;58477;48.072;11.970;2024-03-17T09:26:20;4.10;;;2.60;;
65206;SDS011;58477;48.072;11.970;2024-03-17T09:28:45;2.53;;;2.33;;
65206;SDS011;58477;48.072;11.970;2024-03-17T09:31:11;3.10;;;2.65;;
65206;SDS011;58477;48.072;11.970;2024-03-17T09:33:37;3.00;;;2.28;;
65206;SDS011;58477;48.072;11.970;2024-03-17T09:36:06;2.50;;;2.30;;
65206;SDS011;58477;48.072;11.970;2024-03-17T09:38:34;2.10;;;2.00;;
65206;SDS011;58477;48.072;11.970;2024-03-17T09:41:00;2.80;;;2.15;;
65206;SDS011;58477;48.072;11.970;2024-03-17T09:43:27;2.28;;;2.08;;
65206;SDS011;58477;48.072;11.970;2024-03-17T09:45:53;2.30;;;2.05;;
65206;SDS011;58477;48.072;11.970;2024-03-17T09:48:22;1.80;;;1.70;;
65206;SDS011;58477;48.072;11.970;2024-03-17T09:50:52;2.00;;;1.80;;
65206;SDS011;58477;48.072;11.970;2024-03-17T09:53:27;2.53;;;1.90;;
65206;SDS011;58477;48.072;11.970;2024-03-17T09:56:00;2.60;;;1.80;;
65206;SDS011;58477;48.072;11.970;2024-03-17T09:58:30;1.70;;;1.60;;
65206;SDS011;58477;48.072;11.970;2024-03-17T10:00:56;2.33;;;1.75;;
65206;SDS011;58477;48.072;11.970;2024-03-17T10:03:40;3.25;;;1.67;;
65206;SDS011;58477;48.072;11.970;2024-03-17T10:06:10;5.53;;;1.60;;
65206;SDS011;58477;48.072;11.970;2024-03-17T10:08:43;2.15;;;1.65;;
65206;SDS011;58477;48.072;11.970;2024-03-17T10:11:10;1.40;;;1.30;;
65206;SDS011;58477;48.072;11.970;2024-03-17T10:13:37;2.00;;;1.58;;
65206;SDS011;58477;48.072;11.970;2024-03-17T10:16:02;2.90;;;1.50;;
65206;SDS011;58477;48.072;11.970;2024-03-17T10:18:29;1.67;;;1.33;;
65206;SDS011;58477;48.072;11.970;2024-03-17T10:20:56;1.90;;;1.50;;
65206;SDS011;58477;48.072;11.970;2024-03-17T10:23:22;1.85;;;1.45;;
65206;SDS011;58477;48.072;11.970;2024-03-17T10:25:48;2.72;;;1.90;;
65206;SDS011;58477;48.072;11.970;2024-03-17T10:28:15;1.58;;;1.30;;
65206;SDS011;58477;48.072;11.970;2024-03-17T10:30:41;1.70;;;1.30;;
65206;SDS011;58477;48.072;11.970;2024-03-17T10:33:08;1.38;;;1.27;;
65206;SDS011;58477;48.072;11.970;2024-03-17T10:35:48;2.08;;;1.45;;
65206;SDS011;58477;48.072;11.970;2024-03-17T10:38:13;1.55;;;1.08;;
65206;SDS011;58477;48.072;11.970;2024-03-17T10:40:39;2.10;;;1.33;;
65206;SDS011;58477;48.072;11.970;2024-03-17T10:43:07;1.75;;;1.45;;
65206;SDS011;58477;48.072;11.970;2024-03-17T10:45:35;2.10;;;1.20;;
65206;SDS011;58477;48.072;11.970;2024-03-17T10:48:06;3.55;;;1.42;;
65206;SDS011;58477;48.072;11.970;2024-03-17T10:50:36;1.67;;;1.40;;
65206;SDS011;58477;48.072;11.970;2024-03-17T10:53:03;3.38;;;1.80;;
65206;SDS011;58477;48.072;11.970;2024-03-17T10:55:38;3.00;;;1.27;;
65206;SDS011;58477;48.072;11.970;2024-03-17T10:58:12;2.08;;;1.30;;
65206;SDS011;58477;48.072;11.970;2024-03-17T11:00:44;3.33;;;1.10;;
65206;SDS011;58477;48.072;11.970;2024-03-17T11:03:12;4.10;;;1.40;;
65206;SDS011;58477;48.072;11.970;2024-03-17T11:05:39;2.60;;;1.40;;
65206;SDS011;58477;48.072;11.970;2024-03-17T11:08:04;3.15;;;1.40;;
65206;SDS011;58477;48.072;11.970;2024-03-17T11:10:33;1.65;;;1.33;;
65206;SDS011;58477;48.072;11.970;2024-03-17T11:13:00;2.83;;;1.70;;
65206;SDS011;58477;48.072;11.970;2024-03-17T11:20:32;1.35;;;1.20;;
65206;SDS011;58477;48.072;11.970;2024-03-17T11:22:59;1.30;;;1.20;;
65206;SDS011;58477;48.072;11.970;2024-03-17T11:28:01;2.00;;;1.20;;
65206;SDS011;58477;48.072;11.970;2024-03-17T11:41:49;0.95;;;0.95;;
65206;SDS011;58477;48.072;11.970;2024-03-17T11:46:43;1.38;;;1.00;;
65206;SDS011;58477;48.072;11.970;2024-03-17T11:49:23;1.77;;;0.93;;
65206;SDS011;58477;48.072;11.970;2024-03-17T11:51:51;1.83;;;1.02;;
65206;SDS011;58477;48.072;11.970;2024-03-17T11:54:21;1.65;;;0.90;;
65206;SDS011;58477;48.072;11.970;2024-03-17T11:56:50;1.73;;;1.10;;
65206;SDS011;58477;48.072;11.970;2024-03-17T11:59:17;5.68;;;1.10;;
65206;SDS011;58477;48.072;11.970;2024-03-17T12:01:45;1.13;;;0.95;;
65206;SDS011;58477;48.072;11.970;2024-03-17T12:04:12;1.10;;;1.00;;
65206;SDS011;58477;48.072;11.970;2024-03-17T12:06:39;1.60;;;0.95;;
65206;SDS011;58477;48.072;11.970;2024-03-17T12:09:11;2.38;;;1.23;;
65206;SDS011;58477;48.072;11.970;2024-03-17T12:11:46;2.28;;;1.00;;
65206;SDS011;58477;48.072;11.970;2024-03-17T12:14:17;2.00;;;1.10;;
65206;SDS011;58477;48.072;11.970;2024-03-17T12:16:50;3.25;;;1.00;;
65206;SDS011;58477;48.072;11.970;2024-03-17T12:19:26;3.47;;;1.05;;
65206;SDS011;58477;48.072;11.970;2024-03-17T12:21:53;2.25;;;1.00;;
65206;SDS011;58477;48.072;11.970;2024-03-17T12:24:23;1.13;;;0.88;;
65206;SDS011;58477;48.072;11.970;2024-03-17T12:26:51;1.23;;;0.77;;
65206;SDS011;58477;48.072;11.970;2024-03-17T12:32:15;2.75;;;0.80;;
65206;SDS011;58477;48.072;11.970;2024-03-17T12:34:43;1.38;;;0.82;;
65206;SDS011;58477;48.072;11.970;2024-03-17T12:37:13;1.55;;;0.93;;
65206;SDS011;58477;48.072;11.970;2024-03-17T12:39:42;3.40;;;0.88;;
65206;SDS011;58477;48.072;11.970;2024-03-17T12:42:08;1.75;;;0.93;;
65206;SDS011;58477;48.072;11.970;2024-03-17T12:44:48;1.85;;;0.73;;
65206;SDS011;58477;48.072;11.970;2024-03-17T12:47:18;3.78;;;0.65;;
65206;SDS011;58477;48.072;11.970;2024-03-17T12:52:20;1.50;;;0.65;;
65206;SDS011;58477;48.072;11.970;2024-03-17T12:54:56;1.80;;;0.70;;
65206;SDS011;58477;48.072;11.970;2024-03-17T12:57:45;2.70;;;0.90;;
65206;SDS011;58477;48.072;11.970;2024-03-17T13:00:30;1.23;;;0.75;;
65206;SDS011;58477;48.072;11.970;2024-03-17T13:02:57;0.75;;;0.75;;
65206;SDS011;58477;48.072;11.970;2024-03-17T13:05:22;1.05;;;0.80;;
65206;SDS011;58477;48.072;11.970;2024-03-17T13:07:48;0.70;;;0.50;;
65206;SDS011;58477;48.072;11.970;2024-03-17T13:10:18;3.58;;;0.80;;
65206;SDS011;58477;48.072;11.970;2024-03-17T13:12:47;3.35;;;0.88;;
65206;SDS011;58477;48.072;11.970;2024-03-17T13:15:17;1.17;;;0.68;;
65206;SDS011;58477;48.072;11.970;2024-03-17T13:17:43;2.13;;;0.88;;
65206;SDS011;58477;48.072;11.970;2024-03-17T13:20:16;1.98;;;0.60;;
65206;SDS011;58477;48.072;11.970;2024-03-17T13:22:42;0.60;;;0.60;;
65206;SDS011;58477;48.072;11.970;2024-03-17T13:25:13;2.97;;;1.13;;
65206;SDS011;58477;48.072;11.970;2024-03-17T13:27:45;1.95;;;0.82;;
65206;SDS011;58477;48.072;11.970;2024-03-17T13:30:11;2.78;;;0.88;;
65206;SDS011;58477;48.072;11.970;2024-03-17T13:32:38;0.90;;;0.60;;
65206;SDS011;58477;48.072;11.970;2024-03-17T13:35:05;1.17;;;0.80;;
65206;SDS011;58477;48.072;11.970;2024-03-17T13:37:31;1.05;;;0.80;;
65206;SDS011;58477;48.072;11.970;2024-03-17T13:39:56;1.90;;;0.80;;
65206;SDS011;58477;48.072;11.970;2024-03-17T13:42:22;0.85;;;0.70;;
65206;SDS011;58477;48.072;11.970;2024-03-17T13:44:47;1.85;;;0.70;;
65206;SDS011;58477;48.072;11.970;2024-03-17T13:47:14;0.70;;;0.70;;
65206;SDS011;58477;48.072;11.970;2024-03-17T13:49:40;0.95;;;0.70;;
65206;SDS011;58477;48.072;11.970;2024-03-17T13:52:05;1.65;;;0.90;;
65206;SDS011;58477;48.072;11.970;2024-03-17T13:54:30;1.10;;;0.70;;
65206;SDS011;58477;48.072;11.970;2024-03-17T13:56:57;1.25;;;0.90;;
65206;SDS011;58477;48.072;11.970;2024-03-17T13:59:23;1.65;;;0.90;;
65206;SDS011;58477;48.072;11.970;2024-03-17T14:01:50;2.42;;;1.08;;
65206;SDS011;58477;48.072;11.970;2024-03-17T14:04:16;1.30;;;0.70;;
65206;SDS011;58477;48.072;11.970;2024-03-17T14:06:45;4.97;;;0.90;;
65206;SDS011;58477;48.072;11.970;2024-03-17T14:09:14;1.70;;;1.00;;
65206;SDS011;58477;48.072;11.970;2024-03-17T14:11:43;2.45;;;1.00;;
65206;SDS011;58477;48.072;11.970;2024-03-17T14:14:10;1.40;;;1.00;;
65206;SDS011;58477;48.072;11.970;2024-03-17T14:16:35;2.83;;;1.10;;
65206;SDS011;58477;48.072;11.970;2024-03-17T14:19:01;2.38;;;0.80;;
65206;SDS011;58477;48.072;11.970;2024-03-17T14:21:27;2.55;;;1.00;;
65206;SDS011;58477;48.072;11.970;2024-03-17T14:23:53;1.95;;;1.15;;
65206;SDS011;58477;48.072;11.970;2024-03-17T14:26:19;3.53;;;1.33;;
65206;SDS011;58477;48.072;11.970;2024-03-17T14:28:45;1.75;;;1.20;;
65206;SDS011;58477;48.072;11.970;2024-03-17T14:31:11;2.70;;;1.10;;
65206;SDS011;58477;48.072;11.970;2024-03-17T14:33:37;4.50;;;1.05;;
65206;SDS011;58477;48.072;11.970;2024-03-17T14:36:02;2.50;;;1.10;;
65206;SDS011;58477;48.072;11.970;2024-03-17T14:38:28;1.27;;;1.10;;
65206;SDS011;58477;48.072;11.970;2024-03-17T14:40:53;2.45;;;1.95;;
65206;SDS011;58477;48.072;11.970;2024-03-17T14:43:19;2.38;;;1.40;;
65206;SDS011;58477;48.072;11.970;2024-03-17T14:45:45;2.05;;;1.40;;
65206;SDS011;58477;48.072;11.970;2024-03-17T14:48:11;1.98;;;1.30;;
65206;SDS011;58477;48.072;11.970;2024-03-17T14:50:38;3.03;;;1.45;;
65206;SDS011;58477;48.072;11.970;2024-03-17T14:53:04;8.43;;;1.30;;
65206;SDS011;58477;48.072;11.970;2024-03-17T14:55:30;1.58;;;0.90;;
65206;SDS011;58477;48.072;11.970;2024-03-17T14:57:56;2.63;;;1.92;;
65206;SDS011;58477;48.072;11.970;2024-03-17T15:00:22;1.40;;;1.08;;
65206;SDS011;58477;48.072;11.970;2024-03-17T15:02:50;2.50;;;1.50;;
65206;SDS011;58477;48.072;11.970;2024-03-17T15:05:17;3.38;;;1.20;;